Time;durP1;ratioP1;P1;durP2;ratioP2;P2;SDS_P1;SDS_P2;PMS_P1;PMS_P2;Temp;Humidity;BMP_temperature;BMP_pressure;BME280_temperature;BME280_humidity;BME280_pressure;Samples;Min_cycle;Max_cycle;Signal;HPM_P1;HPM_P2
2023/12/31 00:00:08;;;;;;;0.55;0.55;;;;;;;;;;4960634;28;20042;-79
2023/12/31 00:02:36;;;;;;;0.20;0.20;;;;;;;;;;4968421;28;20050;-78
2023/12/31 00:05:04;;;;;;;0.20;0.20;;;;;;;;;;4977849;28;20055;-79
2023/12/31 00:07:33;;;;;;;0.60;0.60;;;;;;;;;;4978210;28;20132;-79
2023/12/31 00:10:01;;;;;;;0.32;0.32;;;;;;;;;;4973214;28;20391;-78
2023/12/31 00:12:29;;;;;;;2.45;2.25;;;;;;;;;;4979382;28;20066;-79
2023/12/31 00:14:57;;;;;;;0.85;0.85;;;;;;;;;;4979476;28;20485;-78
2023/12/31 00:17:24;;;;;;;0.63;0.60;;;;;;;;;;4976473;28;20050;-78
2023/12/31 00:19:52;;;;;;;0.68;0.68;;;;;;;;;;4979434;28;20039;-78
2023/12/31 00:22:21;;;;;;;0.10;0.10;;;;;;;;;;4974868;28;20054;-78
2023/12/31 00:24:54;;;;;;;0.20;0.20;;;;;;;;;;4978254;28;20058;-78
2023/12/31 00:27:21;;;;;;;0.10;0.10;;;;;;;;;;4977620;28;20060;-79
2023/12/31 00:29:49;;;;;;;0.40;0.40;;;;;;;;;;4975339;28;20046;-78
2023/12/31 00:32:17;;;;;;;0.45;0.45;;;;;;;;;;4977988;28;20172;-78
2023/12/31 00:34:45;;;;;;;0.10;0.10;;;;;;;;;;4976496;28;20140;-78
2023/12/31 00:37:12;;;;;;;2.30;0.88;;;;;;;;;;4975544;28;20046;-78
2023/12/31 00:39:40;;;;;;;0.10;0.10;;;;;;;;;;4968151;28;20161;-78
2023/12/31 00:42:08;;;;;;;1.00;1.00;;;;;;;;;;4977482;28;20112;-78
2023/12/31 00:44:35;;;;;;;0.20;0.20;;;;;;;;;;4975961;28;20393;-78
2023/12/31 00:47:03;;;;;;;0.20;0.20;;;;;;;;;;4959607;28;20062;-78
2023/12/31 00:49:30;;;;;;;0.45;0.45;;;;;;;;;;4978733;28;20069;-79
2023/12/31 00:51:58;;;;;;;0.57;0.57;;;;;;;;;;4976345;28;20501;-78
2023/12/31 00:54:26;;;;;;;0.10;0.10;;;;;;;;;;4974524;28;20048;-78
2023/12/31 00:56:53;;;;;;;10.15;2.17;;;;;;;;;;4974579;28;20046;-79
2023/12/31 00:59:21;;;;;;;4.32;2.20;;;;;;;;;;4976329;28;20526;-78
2023/12/31 01:01:50;;;;;;;7.55;1.48;;;;;;;;;;4972849;28;20052;-79
2023/12/31 01:04:18;;;;;;;0.50;0.50;;;;;;;;;;4975208;28;20129;-78
2023/12/31 01:06:46;;;;;;;1.48;1.38;;;;;;;;;;4977077;28;20485;-79
2023/12/31 01:09:13;;;;;;;10.27;0.47;;;;;;;;;;4976219;28;20061;-79
2023/12/31 01:11:41;;;;;;;0.40;0.40;;;;;;;;;;4957687;28;20054;-79
2023/12/31 01:14:09;;;;;;;0.22;0.22;;;;;;;;;;4977501;28;20061;-78
2023/12/31 01:16:36;;;;;;;1.23;0.88;;;;;;;;;;4945460;28;20072;-79
2023/12/31 01:19:04;;;;;;;0.90;0.90;;;;;;;;;;4977094;28;20042;-78
2023/12/31 01:21:32;;;;;;;0.10;0.10;;;;;;;;;;4962068;28;20053;-78
2023/12/31 01:23:59;;;;;;;0.75;0.75;;;;;;;;;;4975322;28;20496;-78
2023/12/31 01:26:27;;;;;;;6.70;2.42;;;;;;;;;;4977912;28;20050;-78
2023/12/31 01:28:55;;;;;;;1.15;1.15;;;;;;;;;;4977686;28;20050;-78
2023/12/31 01:31:24;;;;;;;5.15;1.38;;;;;;;;;;4976412;28;20046;-78
2023/12/31 01:33:51;;;;;;;4.20;1.77;;;;;;;;;;4977792;28;20362;-78
2023/12/31 01:36:24;;;;;;;36.80;3.53;;;;;;;;;;4979173;28;20046;-79
2023/12/31 01:38:52;;;;;;;4.35;1.42;;;;;;;;;;4974409;28;20054;-79
2023/12/31 01:41:20;;;;;;;1.15;1.05;;;;;;;;;;4977656;28;20140;-78
2023/12/31 01:43:49;;;;;;;0.60;0.43;;;;;;;;;;4975239;28;20393;-78
2023/12/31 01:46:28;;;;;;;0.20;0.20;;;;;;;;;;4978616;28;20069;-78
2023/12/31 01:48:56;;;;;;;2.08;1.20;;;;;;;;;;4973080;28;20050;-78
2023/12/31 01:51:25;;;;;;;0.93;0.70;;;;;;;;;;4978046;28;20078;-78
2023/12/31 01:53:52;;;;;;;0.30;0.30;;;;;;;;;;4972542;28;20038;-78
2023/12/31 01:56:20;;;;;;;0.10;0.10;;;;;;;;;;4975967;28;20817;-79
2023/12/31 01:58:49;;;;;;;0.98;0.98;;;;;;;;;;4975843;28;20046;-79
2023/12/31 02:01:17;;;;;;;0.22;0.22;;;;;;;;;;4956013;28;20497;-78
2023/12/31 02:03:45;;;;;;;0.47;0.47;;;;;;;;;;4975970;28;20074;-78
2023/12/31 02:06:13;;;;;;;0.20;0.20;;;;;;;;;;4975351;28;20050;-78
2023/12/31 02:08:41;;;;;;;0.10;0.10;;;;;;;;;;4976545;28;20054;-78
2023/12/31 02:11:09;;;;;;;0.20;0.20;;;;;;;;;;4978098;28;20113;-78
2023/12/31 02:13:37;;;;;;;0.32;0.32;;;;;;;;;;4978285;28;20475;-78
2023/12/31 02:16:13;;;;;;;1.83;1.27;;;;;;;;;;4949717;28;20940;-78
2023/12/31 02:18:40;;;;;;;0.73;0.73;;;;;;;;;;4974617;28;20050;-78
2023/12/31 02:21:09;;;;;;;0.10;0.10;;;;;;;;;;4977218;28;20448;-79
2023/12/31 02:23:37;;;;;;;0.10;0.10;;;;;;;;;;4968421;28;20073;-78
2023/12/31 02:26:08;;;;;;;0.52;0.52;;;;;;;;;;4977086;28;20137;-79
2023/12/31 02:28:36;;;;;;;0.25;0.25;;;;;;;;;;4976712;28;20245;-78
2023/12/31 02:31:06;;;;;;;0.20;0.20;;;;;;;;;;4975749;28;20062;-79
2023/12/31 02:33:34;;;;;;;0.68;0.68;;;;;;;;;;4975080;28;20053;-78
2023/12/31 02:36:02;;;;;;;1.23;1.23;;;;;;;;;;4976440;28;20714;-78
2023/12/31 02:38:30;;;;;;;0.88;0.88;;;;;;;;;;4970678;28;20053;-78
2023/12/31 02:40:58;;;;;;;0.22;0.22;;;;;;;;;;4956750;28;20387;-79
2023/12/31 02:43:26;;;;;;;4.53;0.95;;;;;;;;;;4976107;28;20536;-79
2023/12/31 02:45:55;;;;;;;0.28;0.28;;;;;;;;;;4961150;28;20228;-78
2023/12/31 02:48:24;;;;;;;0.10;0.10;;;;;;;;;;4979057;28;20431;-78
2023/12/31 02:50:52;;;;;;;0.10;0.10;;;;;;;;;;4979067;28;20046;-78
2023/12/31 02:53:19;;;;;;;0.10;0.10;;;;;;;;;;4978866;28;20072;-78
2023/12/31 02:55:47;;;;;;;0.50;0.47;;;;;;;;;;4962206;28;20417;-78
2023/12/31 02:58:15;;;;;;;0.00;0.00;;;;;;;;;;4981056;28;20050;-79
2023/12/31 03:00:43;;;;;;;0.15;0.15;;;;;;;;;;4979071;28;20046;-79
2023/12/31 03:03:10;;;;;;;1.35;1.15;;;;;;;;;;4980068;28;20068;-78
2023/12/31 03:05:38;;;;;;;0.10;0.10;;;;;;;;;;4981226;28;20125;-79
2023/12/31 03:08:06;;;;;;;1.60;1.27;;;;;;;;;;4979081;28;20050;-79
2023/12/31 03:10:34;;;;;;;0.60;0.60;;;;;;;;;;4978404;28;20054;-78
2023/12/31 03:13:01;;;;;;;0.30;0.30;;;;;;;;;;4980432;28;20378;-78
2023/12/31 03:15:29;;;;;;;0.45;0.45;;;;;;;;;;4976999;28;20074;-78
2023/12/31 03:17:58;;;;;;;1.63;1.30;;;;;;;;;;4969672;28;20046;-78
2023/12/31 03:20:26;;;;;;;0.55;0.55;;;;;;;;;;4981639;28;20039;-78
2023/12/31 03:22:53;;;;;;;0.80;0.80;;;;;;;;;;4980424;28;20189;-79
2023/12/31 03:25:22;;;;;;;0.22;0.22;;;;;;;;;;4978566;28;20061;-79
2023/12/31 03:27:49;;;;;;;0.15;0.15;;;;;;;;;;4962490;28;20054;-79
2023/12/31 03:30:18;;;;;;;0.50;0.50;;;;;;;;;;4978314;28;20048;-78
2023/12/31 03:32:45;;;;;;;0.17;0.17;;;;;;;;;;4976846;28;20492;-78
2023/12/31 03:35:13;;;;;;;0.10;0.10;;;;;;;;;;4957011;28;20081;-78
2023/12/31 03:37:46;;;;;;;0.20;0.20;;;;;;;;;;4962483;28;20160;-78
2023/12/31 03:40:15;;;;;;;3.65;1.80;;;;;;;;;;4977032;28;20050;-78
2023/12/31 03:42:43;;;;;;;0.10;0.10;;;;;;;;;;4978986;28;20137;-79
2023/12/31 03:45:11;;;;;;;1.08;1.05;;;;;;;;;;4960200;28;20050;-78
2023/12/31 03:47:40;;;;;;;0.70;0.70;;;;;;;;;;4984813;28;20429;-78
2023/12/31 03:50:09;;;;;;;2.30;2.10;;;;;;;;;;4984940;28;20468;-78
2023/12/31 03:52:38;;;;;;;4.40;0.88;;;;;;;;;;4986434;28;20113;-78
2023/12/31 03:55:05;;;;;;;1.17;1.08;;;;;;;;;;4968107;28;20081;-78
2023/12/31 03:57:33;;;;;;;0.55;0.55;;;;;;;;;;4965494;28;20042;-78
2023/12/31 04:00:03;;;;;;;1.08;0.85;;;;;;;;;;4970876;28;20109;-78
2023/12/31 04:02:31;;;;;;;0.55;0.55;;;;;;;;;;4987479;28;20046;-79
2023/12/31 04:04:58;;;;;;;34.47;3.42;;;;;;;;;;4986730;28;20053;-79
2023/12/31 04:07:26;;;;;;;0.63;0.63;;;;;;;;;;4986417;28;20394;-78
2023/12/31 04:09:54;;;;;;;14.65;1.05;;;;;;;;;;4985859;28;20178;-78
2023/12/31 04:12:22;;;;;;;0.10;0.10;;;;;;;;;;4971375;28;20518;-81
2023/12/31 04:14:49;;;;;;;0.98;0.65;;;;;;;;;;4992004;28;20326;-80
2023/12/31 04:17:18;;;;;;;0.20;0.20;;;;;;;;;;4995850;28;20054;-76
2023/12/31 04:19:46;;;;;;;0.63;0.63;;;;;;;;;;4977878;28;20061;-77
2023/12/31 04:22:13;;;;;;;3.92;2.55;;;;;;;;;;4995497;28;20058;-79
2023/12/31 04:24:41;;;;;;;0.50;0.50;;;;;;;;;;4994795;28;20166;-78
2023/12/31 04:27:08;;;;;;;0.80;0.80;;;;;;;;;;4994560;28;20046;-81
2023/12/31 04:29:36;;;;;;;1.33;1.23;;;;;;;;;;4993540;28;20524;-81
2023/12/31 04:32:04;;;;;;;1.35;1.30;;;;;;;;;;4993238;28;20471;-78
2023/12/31 04:34:32;;;;;;;2.53;1.05;;;;;;;;;;4993218;28;20054;-79
2023/12/31 04:37:00;;;;;;;18.83;1.75;;;;;;;;;;4976392;28;20072;-79
2023/12/31 04:39:28;;;;;;;5.05;1.38;;;;;;;;;;4994460;28;20434;-80
2023/12/31 04:41:55;;;;;;;3.35;1.63;;;;;;;;;;4994050;28;20515;-81
2023/12/31 04:44:25;;;;;;;54.75;4.43;;;;;;;;;;4967564;28;20046;-79
2023/12/31 04:46:52;;;;;;;0.38;0.25;;;;;;;;;;4988258;28;20058;-79
2023/12/31 04:49:20;;;;;;;1.38;1.15;;;;;;;;;;4993820;28;20339;-81
2023/12/31 04:51:47;;;;;;;0.47;0.47;;;;;;;;;;4993989;28;20084;-80
2023/12/31 04:54:15;;;;;;;0.22;0.22;;;;;;;;;;4976132;28;20038;-79
2023/12/31 04:56:43;;;;;;;0.70;0.70;;;;;;;;;;4994295;28;20086;-79
2023/12/31 04:59:10;;;;;;;0.32;0.32;;;;;;;;;;4979069;28;20263;-80
2023/12/31 05:01:38;;;;;;;0.52;0.52;;;;;;;;;;4972742;28;20057;-81
2023/12/31 05:04:06;;;;;;;0.20;0.20;;;;;;;;;;4993601;28;20428;-78
2023/12/31 05:06:33;;;;;;;0.65;0.65;;;;;;;;;;4992912;28;20141;-76
2023/12/31 05:09:03;;;;;;;0.52;0.52;;;;;;;;;;4990532;28;20061;-79
2023/12/31 05:11:31;;;;;;;0.93;0.90;;;;;;;;;;4986636;28;20054;-80
2023/12/31 05:13:58;;;;;;;0.00;0.00;;;;;;;;;;4993583;28;20439;-80
2023/12/31 05:16:31;;;;;;;0.10;0.10;;;;;;;;;;4976338;28;20046;-81
2023/12/31 05:22:42;;;;;;;0.20;0.20;;;;;;;;;;5036222;28;20470;-83
2023/12/31 05:28:49;;;;;;;0.32;0.32;;;;;;;;;;5034010;23;20396;-74
2023/12/31 05:31:17;;;;;;;0.73;0.73;;;;;;;;;;4997137;28;20403;-74
2023/12/31 05:33:46;;;;;;;0.43;0.43;;;;;;;;;;5027949;28;20069;-74
2023/12/31 05:36:14;;;;;;;0.13;0.13;;;;;;;;;;5034227;28;20103;-74
2023/12/31 05:38:42;;;;;;;0.13;0.13;;;;;;;;;;5029741;28;20497;-74
2023/12/31 05:41:09;;;;;;;1.13;1.13;;;;;;;;;;5023232;28;20051;-74
2023/12/31 05:43:36;;;;;;;0.45;0.45;;;;;;;;;;5023583;28;20053;-74
2023/12/31 05:46:04;;;;;;;1.02;0.52;;;;;;;;;;5011419;28;20514;-74
2023/12/31 05:48:32;;;;;;;0.30;0.30;;;;;;;;;;5025169;28;20053;-74
2023/12/31 05:50:59;;;;;;;0.43;0.43;;;;;;;;;;5033916;28;20137;-74
2023/12/31 05:53:27;;;;;;;1.67;1.45;;;;;;;;;;5025450;28;20384;-74
2023/12/31 05:55:56;;;;;;;0.17;0.17;;;;;;;;;;5024433;28;20530;-74
2023/12/31 05:58:24;;;;;;;1.00;0.98;;;;;;;;;;5024384;28;20465;-74
2023/12/31 06:00:51;;;;;;;1.98;1.23;;;;;;;;;;5026686;28;20442;-74
2023/12/31 06:03:19;;;;;;;6.55;2.25;;;;;;;;;;5025767;28;20164;-74
2023/12/31 06:05:47;;;;;;;0.50;0.50;;;;;;;;;;5035186;28;20144;-74
2023/12/31 06:08:15;;;;;;;1.92;1.08;;;;;;;;;;5026520;28;20059;-74
2023/12/31 06:10:42;;;;;;;0.17;0.17;;;;;;;;;;5026010;28;20045;-74
2023/12/31 06:13:10;;;;;;;0.20;0.20;;;;;;;;;;5024996;28;20111;-74
2023/12/31 06:15:37;;;;;;;4.78;0.98;;;;;;;;;;5024707;28;20081;-74
2023/12/31 06:18:05;;;;;;;4.15;0.63;;;;;;;;;;5005908;28;20562;-74
2023/12/31 06:20:33;;;;;;;1.27;0.68;;;;;;;;;;5000414;28;20121;-75
2023/12/31 06:23:00;;;;;;;0.45;0.45;;;;;;;;;;5021488;28;20050;-74
2023/12/31 06:25:28;;;;;;;0.57;0.57;;;;;;;;;;5018667;28;20423;-74
2023/12/31 06:27:57;;;;;;;0.25;0.25;;;;;;;;;;5017837;28;20136;-74
2023/12/31 06:30:24;;;;;;;0.30;0.30;;;;;;;;;;5024062;28;20736;-74
2023/12/31 06:32:55;;;;;;;0.43;0.43;;;;;;;;;;5031290;28;20055;-74
2023/12/31 06:35:23;;;;;;;0.80;0.80;;;;;;;;;;5028771;28;20150;-74
2023/12/31 06:37:50;;;;;;;0.03;0.03;;;;;;;;;;5028042;28;20170;-74
2023/12/31 06:40:18;;;;;;;0.32;0.25;;;;;;;;;;5025461;28;20514;-74
2023/12/31 06:42:45;;;;;;;0.40;0.40;;;;;;;;;;5026917;28;20080;-74
2023/12/31 06:45:13;;;;;;;0.30;0.30;;;;;;;;;;5029822;28;20495;-74
2023/12/31 06:47:41;;;;;;;0.80;0.80;;;;;;;;;;5018708;28;20050;-74
2023/12/31 06:50:10;;;;;;;0.10;0.10;;;;;;;;;;5029022;28;20064;-74
2023/12/31 06:52:38;;;;;;;0.10;0.10;;;;;;;;;;5027884;28;20142;-74
2023/12/31 06:55:06;;;;;;;0.57;0.57;;;;;;;;;;5033727;28;20061;-74
2023/12/31 06:57:34;;;;;;;0.98;0.98;;;;;;;;;;5039362;28;20060;-78
2023/12/31 07:00:02;;;;;;;0.63;0.38;;;;;;;;;;5032369;28;20104;-78
2023/12/31 07:02:30;;;;;;;0.65;0.65;;;;;;;;;;5029698;28;20060;-77
2023/12/31 07:04:57;;;;;;;0.10;0.10;;;;;;;;;;5034261;28;20049;-78
2023/12/31 07:07:25;;;;;;;0.17;0.17;;;;;;;;;;5038349;28;20037;-79
2023/12/31 07:09:53;;;;;;;1.77;0.65;;;;;;;;;;5034536;28;20127;-79
2023/12/31 07:12:20;;;;;;;1.20;1.10;;;;;;;;;;5034505;28;20045;-78
2023/12/31 07:14:48;;;;;;;0.70;0.70;;;;;;;;;;5039738;28;20046;-79
2023/12/31 07:17:17;;;;;;;0.68;0.68;;;;;;;;;;5012746;28;20049;-79
2023/12/31 07:19:55;;;;;;;0.40;0.40;;;;;;;;;;5039221;28;20499;-79
2023/12/31 07:22:23;;;;;;;1.35;1.35;;;;;;;;;;5022929;28;20088;-78
2023/12/31 07:24:51;;;;;;;0.85;0.85;;;;;;;;;;5031501;28;20049;-78
2023/12/31 07:27:18;;;;;;;0.63;0.63;;;;;;;;;;5030651;28;20045;-78
2023/12/31 07:29:46;;;;;;;0.25;0.20;;;;;;;;;;5019608;28;20053;-79
2023/12/31 07:32:14;;;;;;;0.85;0.85;;;;;;;;;;5039202;28;20057;-78
2023/12/31 07:34:42;;;;;;;0.32;0.32;;;;;;;;;;5031005;28;20049;-79
2023/12/31 07:37:09;;;;;;;0.20;0.20;;;;;;;;;;5039530;28;20061;-78
2023/12/31 07:39:37;;;;;;;0.47;0.47;;;;;;;;;;5036084;28;20064;-79
2023/12/31 07:42:05;;;;;;;2.45;0.80;;;;;;;;;;5036291;28;20277;-79
2023/12/31 07:44:33;;;;;;;0.10;0.10;;;;;;;;;;5028570;28;20049;-79
2023/12/31 07:47:03;;;;;;;0.40;0.40;;;;;;;;;;5034625;28;20072;-79
2023/12/31 07:49:32;;;;;;;4.03;1.10;;;;;;;;;;5034268;28;20057;-79
2023/12/31 07:52:01;;;;;;;0.80;0.80;;;;;;;;;;5038346;28;20049;-78
2023/12/31 07:54:28;;;;;;;0.32;0.32;;;;;;;;;;5031607;28;20049;-78
2023/12/31 07:56:56;;;;;;;0.10;0.10;;;;;;;;;;5035368;28;20048;-78
2023/12/31 07:59:24;;;;;;;0.10;0.10;;;;;;;;;;5039302;28;20112;-79
2023/12/31 08:01:52;;;;;;;0.35;0.35;;;;;;;;;;5015395;28;20179;-79
2023/12/31 08:04:20;;;;;;;0.25;0.25;;;;;;;;;;5030381;28;20060;-78
2023/12/31 08:06:48;;;;;;;0.28;0.28;;;;;;;;;;5040212;28;20044;-79
2023/12/31 08:09:16;;;;;;;17.45;2.75;;;;;;;;;;5036790;28;20103;-79
2023/12/31 08:11:43;;;;;;;0.52;0.52;;;;;;;;;;5034643;28;20038;-79
2023/12/31 08:14:11;;;;;;;0.30;0.30;;;;;;;;;;5033170;28;20041;-78
2023/12/31 08:16:38;;;;;;;1.67;1.38;;;;;;;;;;5031759;28;20258;-80
2023/12/31 08:19:06;;;;;;;1.00;1.00;;;;;;;;;;5030121;28;20056;-79
2023/12/31 08:21:37;;;;;;;6.53;2.30;;;;;;;;;;5030334;28;20449;-79
2023/12/31 08:24:05;;;;;;;50.55;4.75;;;;;;;;;;5029592;28;20053;-80
2023/12/31 08:26:33;;;;;;;33.33;3.35;;;;;;;;;;5023931;28;20045;-80
2023/12/31 08:29:00;;;;;;;0.63;0.63;;;;;;;;;;5033514;28;20057;-80
2023/12/31 08:31:28;;;;;;;1.38;0.63;;;;;;;;;;5025155;28;20147;-79
2023/12/31 08:33:56;;;;;;;0.08;0.08;;;;;;;;;;5035167;28;20045;-79
2023/12/31 08:36:23;;;;;;;0.98;0.98;;;;;;;;;;5020698;28;20110;-79
2023/12/31 08:38:51;;;;;;;0.47;0.47;;;;;;;;;;5035549;28;20078;-78
2023/12/31 08:41:19;;;;;;;1.02;1.00;;;;;;;;;;5016983;28;20045;-79
2023/12/31 08:43:47;;;;;;;40.97;4.32;;;;;;;;;;5037922;28;20049;-79
2023/12/31 08:46:15;;;;;;;15.88;1.73;;;;;;;;;;5030514;28;20049;-79
2023/12/31 08:48:43;;;;;;;1.30;1.20;;;;;;;;;;5030810;28;20231;-79
2023/12/31 08:51:10;;;;;;;0.63;0.63;;;;;;;;;;5038064;28;20053;-79
2023/12/31 08:53:38;;;;;;;9.25;1.48;;;;;;;;;;5032470;28;20037;-79
2023/12/31 08:56:06;;;;;;;0.20;0.20;;;;;;;;;;5039619;28;20080;-79
2023/12/31 08:58:33;;;;;;;0.77;0.77;;;;;;;;;;5029670;28;20053;-79
2023/12/31 09:01:02;;;;;;;14.43;1.80;;;;;;;;;;5030475;28;20199;-79
2023/12/31 09:03:30;;;;;;;2.22;0.75;;;;;;;;;;5018387;28;20054;-79
2023/12/31 09:05:58;;;;;;;17.83;2.70;;;;;;;;;;5031584;28;20060;-79
2023/12/31 09:08:26;;;;;;;11.48;1.13;;;;;;;;;;5004966;28;20051;-79
2023/12/31 09:10:55;;;;;;;11.73;2.00;;;;;;;;;;5030817;28;20045;-79
2023/12/31 09:13:23;;;;;;;1.13;1.02;;;;;;;;;;5034585;28;20055;-79
2023/12/31 09:15:55;;;;;;;1.55;1.45;;;;;;;;;;5010420;28;20072;-79
2023/12/31 09:18:23;;;;;;;0.77;0.67;;;;;;;;;;5017844;28;20124;-80
2023/12/31 09:20:51;;;;;;;1.27;0.85;;;;;;;;;;5031642;28;20361;-78
2023/12/31 09:23:19;;;;;;;5.32;2.85;;;;;;;;;;5026009;28;20423;-80
2023/12/31 09:25:47;;;;;;;4.47;0.98;;;;;;;;;;5008670;28;20661;-80
2023/12/31 09:28:15;;;;;;;0.10;0.10;;;;;;;;;;5027457;28;20411;-79
2023/12/31 09:30:43;;;;;;;0.75;0.30;;;;;;;;;;5028932;28;20075;-80
2023/12/31 09:33:11;;;;;;;1.60;1.50;;;;;;;;;;5033206;28;20057;-80
2023/12/31 09:35:38;;;;;;;0.22;0.22;;;;;;;;;;5030138;28;20057;-80
2023/12/31 09:38:06;;;;;;;0.10;0.10;;;;;;;;;;5031723;28;20731;-79
2023/12/31 09:40:33;;;;;;;0.50;0.50;;;;;;;;;;5019834;28;20114;-79
2023/12/31 09:43:05;;;;;;;0.43;0.43;;;;;;;;;;5031037;28;20049;-79
2023/12/31 09:45:34;;;;;;;1.65;1.13;;;;;;;;;;5022472;28;20334;-79
2023/12/31 09:48:02;;;;;;;0.28;0.28;;;;;;;;;;5036572;28;20449;-78
2023/12/31 09:50:30;;;;;;;1.10;1.00;;;;;;;;;;5041754;28;20057;-78
2023/12/31 09:53:01;;;;;;;0.75;0.73;;;;;;;;;;5025342;28;20431;-79
2023/12/31 09:55:29;;;;;;;1.77;1.25;;;;;;;;;;5028357;28;20049;-79
2023/12/31 09:57:57;;;;;;;0.57;0.57;;;;;;;;;;5011402;28;20054;-79
2023/12/31 10:00:25;;;;;;;1.33;0.75;;;;;;;;;;5023876;28;20064;-79
2023/12/31 10:02:53;;;;;;;8.70;2.95;;;;;;;;;;5024047;28;20075;-79
2023/12/31 10:05:24;;;;;;;1.77;1.67;;;;;;;;;;5030542;28;20049;-79
2023/12/31 10:07:55;;;;;;;2.80;0.80;;;;;;;;;;5030157;28;20046;-78
2023/12/31 10:10:25;;;;;;;0.63;0.63;;;;;;;;;;5038007;28;20403;-80
2023/12/31 10:12:53;;;;;;;0.40;0.40;;;;;;;;;;5014809;28;20044;-77
2023/12/31 10:15:21;;;;;;;1.75;1.17;;;;;;;;;;5034789;28;20044;-79
2023/12/31 10:17:49;;;;;;;8.90;4.22;;;;;;;;;;5021833;28;20059;-79
2023/12/31 10:20:19;;;;;;;0.60;0.47;;;;;;;;;;5032723;28;20048;-79
2023/12/31 10:22:47;;;;;;;4.43;1.65;;;;;;;;;;5032050;28;20060;-79
2023/12/31 10:25:15;;;;;;;0.43;0.43;;;;;;;;;;5033482;28;20515;-80
2023/12/31 10:27:47;;;;;;;0.10;0.10;;;;;;;;;;5011713;28;20103;-79
2023/12/31 10:30:15;;;;;;;0.98;0.88;;;;;;;;;;5024642;28;20491;-79
2023/12/31 10:32:43;;;;;;;0.82;0.82;;;;;;;;;;5024395;28;20502;-79
2023/12/31 10:35:11;;;;;;;2.60;2.40;;;;;;;;;;5033657;28;20060;-78
2023/12/31 10:37:40;;;;;;;0.10;0.10;;;;;;;;;;5027772;28;20054;-78
2023/12/31 10:40:19;;;;;;;1.52;1.30;;;;;;;;;;5025323;28;20046;-79
2023/12/31 10:42:49;;;;;;;1.55;1.45;;;;;;;;;;5028458;28;20658;-79
2023/12/31 10:45:18;;;;;;;0.40;0.40;;;;;;;;;;5025928;28;20076;-79
2023/12/31 10:47:50;;;;;;;0.35;0.35;;;;;;;;;;5027116;28;20763;-79
2023/12/31 10:50:23;;;;;;;0.82;0.82;;;;;;;;;;5025474;28;20049;-79
2023/12/31 10:52:51;;;;;;;0.52;0.35;;;;;;;;;;5028306;28;20061;-79
2023/12/31 10:55:19;;;;;;;1.02;1.02;;;;;;;;;;5011924;28;20128;-79
2023/12/31 10:57:47;;;;;;;0.40;0.40;;;;;;;;;;5022971;28;20053;-79
2023/12/31 11:00:19;;;;;;;1.15;1.05;;;;;;;;;;5014009;28;20069;-79
2023/12/31 11:02:47;;;;;;;;;;;;;;;;;;5008731;28;20522;-78
2023/12/31 11:05:15;;;;;;;2.78;2.58;;;;;;;;;;4986424;28;19960;-77
2023/12/31 11:07:43;;;;;;;1.38;1.38;;;;;;;;;;5025482;28;20073;-77
2023/12/31 11:10:12;;;;;;;7.65;2.63;;;;;;;;;;5007687;28;20155;-77
2023/12/31 11:12:40;;;;;;;0.32;0.32;;;;;;;;;;5021200;28;20307;-77
2023/12/31 11:15:18;;;;;;;2.58;1.92;;;;;;;;;;5015794;28;20073;-77
2023/12/31 11:18:04;;;;;;;1.38;1.30;;;;;;;;;;5019346;28;20038;-77
2023/12/31 11:20:41;;;;;;;0.20;0.20;;;;;;;;;;5023326;28;20128;-77
2023/12/31 11:23:17;;;;;;;1.63;1.50;;;;;;;;;;5021964;28;20060;-77
2023/12/31 11:25:46;;;;;;;0.82;0.82;;;;;;;;;;5029462;28;20550;-77
2023/12/31 11:28:32;;;;;;;1.27;1.27;;;;;;;;;;5020464;22;20061;-79
2023/12/31 11:31:12;;;;;;;1.17;1.08;;;;;;;;;;5006191;28;20137;-80
2023/12/31 11:37:45;;;;;;;1.08;0.98;;;;;;;;;;4909672;28;20043;-79
2023/12/31 11:40:51;;;;;;;0.60;0.60;;;;;;;;;;4990605;28;20041;-79
2023/12/31 11:43:25;;;;;;;1.27;1.15;;;;;;;;;;5006627;28;20041;-79
2023/12/31 11:47:06;;;;;;;0.52;0.45;;;;;;;;;;5002938;28;20806;-80
2023/12/31 11:51:11;;;;;;;2.42;1.92;;;;;;;;;;4944386;28;20043;-79
2023/12/31 11:55:15;;;;;;;1.65;1.55;;;;;;;;;;4959718;28;20129;-82
2023/12/31 12:01:48;;;;;;;1.60;1.50;;;;;;;;;;4930839;28;20049;-79
2023/12/31 12:07:57;;;;;;;0.30;0.30;;;;;;;;;;4955007;28;20047;-81
2023/12/31 12:10:48;;;;;;;2.97;2.47;;;;;;;;;;4957978;28;20433;-81
2023/12/31 12:14:05;;;;;;;2.67;1.95;;;;;;;;;;4964450;28;20056;-81
2023/12/31 12:17:08;;;;;;;1.70;1.60;;;;;;;;;;4959340;28;20540;-82
2023/12/31 12:23:57;;;;;;;0.17;0.17;;;;;;;;;;4941162;28;20038;-78
2023/12/31 12:26:55;;;;;;;0.82;0.82;;;;;;;;;;4968509;28;20140;-77
2023/12/31 12:30:16;;;;;;;5.47;2.78;;;;;;;;;;4989687;28;20042;-79
2023/12/31 12:33:44;;;;;;;1.67;1.58;;;;;;;;;;5007697;28;20050;-78
2023/12/31 12:37:07;;;;;;;;;;;;;;;;;;;;;
2023/12/31 12:43:51;;;;;;;0.65;0.65;;;;;;;;;;4991510;28;20142;-79
2023/12/31 12:47:22;;;;;;;5.38;3.13;;;;;;;;;;5005654;28;20596;-79
2023/12/31 12:58:25;;;;;;;0.13;0.13;;;;;;;;;;4995544;28;20139;-79
2023/12/31 13:01:51;;;;;;;0.38;0.38;;;;;;;;;;5006669;28;20726;-78
2023/12/31 13:09:08;;;;;;;0.20;0.20;;;;;;;;;;4908653;29;20044;-79
2023/12/31 13:12:42;;;;;;;0.10;0.10;;;;;;;;;;4938543;28;20027;-78
2023/12/31 13:16:27;;;;;;;0.10;0.10;;;;;;;;;;4913894;29;20055;-81
2023/12/31 13:20:05;;;;;;;1.13;0.85;;;;;;;;;;4939076;28;20150;-80
2023/12/31 13:24:26;;;;;;;0.05;0.05;;;;;;;;;;4943762;28;20109;-80
2023/12/31 13:28:11;;;;;;;0.13;0.13;;;;;;;;;;4957220;23;20679;-78
2023/12/31 13:30:39;;;;;;;0.20;0.20;;;;;;;;;;4992771;28;20415;-78
2023/12/31 13:33:07;;;;;;;0.00;0.00;;;;;;;;;;4994052;28;20054;-78
2023/12/31 13:35:35;;;;;;;9.63;2.33;;;;;;;;;;4987167;28;20057;-78
2023/12/31 13:38:07;;;;;;;1.60;1.55;;;;;;;;;;4990385;28;20232;-78
2023/12/31 13:40:35;;;;;;;4.35;2.42;;;;;;;;;;4988200;28;20126;-78
2023/12/31 13:43:02;;;;;;;3.60;2.55;;;;;;;;;;4989419;28;20046;-78
2023/12/31 13:45:30;;;;;;;16.10;1.52;;;;;;;;;;4978552;28;20051;-78
2023/12/31 13:48:00;;;;;;;1.65;1.55;;;;;;;;;;4989504;28;20526;-78
2023/12/31 13:50:29;;;;;;;3.35;1.65;;;;;;;;;;4985990;28;20531;-78
2023/12/31 13:52:57;;;;;;;0.65;0.65;;;;;;;;;;4988644;28;20053;-78
2023/12/31 13:55:24;;;;;;;0.73;0.73;;;;;;;;;;4989709;28;20050;-78
2023/12/31 13:57:52;;;;;;;2.95;0.65;;;;;;;;;;4981080;28;20725;-78
2023/12/31 14:00:20;;;;;;;1.20;1.10;;;;;;;;;;4990344;28;20050;-78
2023/12/31 14:02:49;;;;;;;2.10;1.88;;;;;;;;;;4982966;28;20062;-78
2023/12/31 14:05:31;;;;;;;6.63;3.63;;;;;;;;;;4979990;28;20078;-78
2023/12/31 14:07:59;;;;;;;2.97;2.70;;;;;;;;;;4962802;28;20266;-78
2023/12/31 14:10:27;;;;;;;1.27;1.17;;;;;;;;;;4972164;28;20314;-78
2023/12/31 14:12:54;;;;;;;4.45;3.30;;;;;;;;;;4952795;28;21564;-78
2023/12/31 14:15:22;;;;;;;3.90;3.38;;;;;;;;;;4959634;28;20053;-79
2023/12/31 14:17:50;;;;;;;2.83;2.53;;;;;;;;;;4968840;28;20132;-78
2023/12/31 14:20:17;;;;;;;4.03;3.28;;;;;;;;;;4981605;28;20472;-78
2023/12/31 14:22:45;;;;;;;0.32;0.32;;;;;;;;;;4966430;28;20121;-78
2023/12/31 14:25:13;;;;;;;2.20;2.03;;;;;;;;;;4964649;28;20054;-78
2023/12/31 14:27:41;;;;;;;0.55;0.55;;;;;;;;;;4967924;28;20516;-78
2023/12/31 14:30:09;;;;;;;2.58;1.67;;;;;;;;;;4967112;28;20058;-78
2023/12/31 14:32:37;;;;;;;1.52;1.42;;;;;;;;;;4982344;28;20050;-78
2023/12/31 14:35:06;;;;;;;0.85;0.85;;;;;;;;;;4980601;28;20050;-78
2023/12/31 14:37:33;;;;;;;0.68;0.47;;;;;;;;;;4958133;28;20054;-78
2023/12/31 14:40:01;;;;;;;0.52;0.52;;;;;;;;;;4980794;28;20124;-77
2023/12/31 14:42:28;;;;;;;2.35;2.15;;;;;;;;;;4982674;28;20409;-77
2023/12/31 14:44:56;;;;;;;1.45;1.35;;;;;;;;;;4985953;28;20042;-77
2023/12/31 14:47:24;;;;;;;0.10;0.10;;;;;;;;;;4985119;28;20505;-78
2023/12/31 14:49:52;;;;;;;0.43;0.40;;;;;;;;;;4962111;28;20057;-78
2023/12/31 14:52:20;;;;;;;0.98;0.98;;;;;;;;;;4982964;28;20516;-77
2023/12/31 14:54:48;;;;;;;0.10;0.10;;;;;;;;;;4985377;28;20230;-78
2023/12/31 14:57:16;;;;;;;2.28;1.95;;;;;;;;;;4984133;28;20064;-77
2023/12/31 14:59:44;;;;;;;0.47;0.47;;;;;;;;;;4989559;28;20351;-78
2023/12/31 15:02:20;;;;;;;0.10;0.10;;;;;;;;;;4966114;28;20039;-78
2023/12/31 15:04:48;;;;;;;0.63;0.63;;;;;;;;;;4983147;28;20500;-77
2023/12/31 15:07:26;;;;;;;0.10;0.10;;;;;;;;;;4964707;28;20054;-78
2023/12/31 15:09:54;;;;;;;7.20;3.88;;;;;;;;;;4979120;28;20046;-78
2023/12/31 15:12:22;;;;;;;0.50;0.50;;;;;;;;;;4984326;28;20138;-78
2023/12/31 15:14:50;;;;;;;0.10;0.10;;;;;;;;;;4982983;28;20053;-78
2023/12/31 15:17:18;;;;;;;0.10;0.10;;;;;;;;;;4966976;28;20461;-78
2023/12/31 15:19:46;;;;;;;0.10;0.10;;;;;;;;;;4990475;28;20337;-78
2023/12/31 15:22:14;;;;;;;0.45;0.45;;;;;;;;;;4984728;28;20133;-79
2023/12/31 15:24:42;;;;;;;0.15;0.05;;;;;;;;;;4986015;28;20049;-77
2023/12/31 15:27:10;;;;;;;1.38;0.32;;;;;;;;;;4962458;28;20057;-78
2023/12/31 15:29:37;;;;;;;0.68;0.68;;;;;;;;;;4986193;28;20057;-79
2023/12/31 15:32:05;;;;;;;0.30;0.30;;;;;;;;;;4977118;28;20054;-79
2023/12/31 15:34:32;;;;;;;3.83;2.92;;;;;;;;;;4943135;28;20086;-79
2023/12/31 15:37:07;;;;;;;2.25;1.20;;;;;;;;;;4978802;28;20436;-79
2023/12/31 15:39:36;;;;;;;1.00;0.98;;;;;;;;;;4980527;28;20097;-78
2023/12/31 15:42:05;;;;;;;5.07;2.92;;;;;;;;;;4970652;28;20508;-78
2023/12/31 15:44:32;;;;;;;1.50;1.40;;;;;;;;;;4950812;28;20049;-79
2023/12/31 15:47:00;;;;;;;2.17;2.05;;;;;;;;;;4956722;28;20043;-79
2023/12/31 15:49:31;;;;;;;2.63;2.42;;;;;;;;;;4959026;28;20053;-79